Time;durP1;ratioP1;P1;durP2;ratioP2;P2;SDS_P1;SDS_P2;PMS_P1;PMS_P2;Temp;Humidity;BMP_temperature;BMP_pressure;BME280_temperature;BME280_humidity;BME280_pressure;Samples;Min_cycle;Max_cycle;Signal;HPM_P1;HPM_P2
2020/12/29 00:00:56;;;;;;;17.60;11.57;;;4.50;99.90;;;;;;5057854;28;20043;-92
2020/12/29 00:03:21;;;;;;;17.00;11.88;;;4.50;99.90;;;;;;5057938;28;20016;-92
2020/12/29 00:05:47;;;;;;;17.88;12.30;;;4.50;99.90;;;;;;5057920;28;20016;-91
2020/12/29 00:08:13;;;;;;;15.07;10.95;;;4.40;99.90;;;;;;5057412;28;20044;-92
2020/12/29 00:10:39;;;;;;;17.95;13.27;;;4.40;99.90;;;;;;5057568;28;20029;-92
2020/12/29 00:13:05;;;;;;;21.88;14.00;;;4.40;99.90;;;;;;5057563;28;20476;-91
2020/12/29 00:15:31;;;;;;;16.15;12.38;;;4.30;99.90;;;;;;5057544;28;20056;-93
2020/12/29 00:17:57;;;;;;;14.93;11.38;;;4.30;99.90;;;;;;5057411;28;20052;-93
2020/12/29 00:20:23;;;;;;;17.77;12.93;;;4.30;99.90;;;;;;5057671;28;20059;-92
2020/12/29 00:22:48;;;;;;;16.92;13.00;;;4.30;99.90;;;;;;5057318;28;20487;-93
2020/12/29 00:25:18;;;;;;;15.63;11.90;;;4.30;99.90;;;;;;5074787;28;20029;-93
2020/12/29 00:27:43;;;;;;;17.52;13.35;;;4.30;99.90;;;;;;5057226;28;20020;-93
2020/12/29 00:30:09;;;;;;;17.35;13.57;;;4.30;99.90;;;;;;5056897;28;20024;-93
2020/12/29 00:32:35;;;;;;;18.80;14.07;;;4.30;99.90;;;;;;5074842;28;20033;-92
2020/12/29 00:35:00;;;;;;;20.52;14.48;;;4.30;99.90;;;;;;5057161;28;20034;-93
2020/12/29 00:37:26;;;;;;;17.25;12.80;;;4.30;99.90;;;;;;5057076;28;20032;-93
2020/12/29 00:39:51;;;;;;;16.08;12.43;;;4.40;99.90;;;;;;5057217;28;20115;-93
2020/12/29 00:42:17;;;;;;;17.38;13.35;;;4.30;99.90;;;;;;5056833;28;20096;-92
2020/12/29 00:44:42;;;;;;;20.80;13.07;;;4.30;99.90;;;;;;5056934;28;20031;-93
2020/12/29 00:47:08;;;;;;;15.73;11.63;;;4.40;99.90;;;;;;5057090;28;20021;-93
2020/12/29 00:49:37;;;;;;;16.75;12.02;;;4.30;99.90;;;;;;5057028;28;20475;-94
2020/12/29 00:52:03;;;;;;;13.68;10.20;;;4.40;99.90;;;;;;5057182;28;20487;-94
2020/12/29 00:54:28;;;;;;;12.88;9.80;;;4.40;99.90;;;;;;5056719;28;20020;-93
2020/12/29 00:56:53;;;;;;;14.13;10.07;;;4.50;99.90;;;;;;5056730;28;20491;-93
2020/12/29 00:59:19;;;;;;;13.15;9.05;;;4.50;99.90;;;;;;5057125;28;20029;-93
2020/12/29 01:01:44;;;;;;;12.75;9.15;;;4.60;99.90;;;;;;5056714;28;20029;-94
2020/12/29 01:04:10;;;;;;;12.73;8.50;;;4.60;99.90;;;;;;5056450;28;20040;-93
2020/12/29 01:06:36;;;;;;;12.70;8.35;;;4.60;99.90;;;;;;5056800;28;20020;-92
2020/12/29 01:09:01;;;;;;;12.82;9.23;;;4.70;99.90;;;;;;5056616;28;20400;-92
2020/12/29 01:11:27;;;;;;;13.02;8.15;;;4.70;99.90;;;;;;5056441;28;20500;-93
2020/12/29 01:13:52;;;;;;;12.15;8.77;;;4.70;99.90;;;;;;5056587;28;20021;-93
2020/12/29 01:16:18;;;;;;;14.48;9.02;;;4.70;99.90;;;;;;5056522;28;20028;-92
2020/12/29 01:18:43;;;;;;;12.15;8.32;;;4.70;99.90;;;;;;5056358;28;20059;-92
2020/12/29 01:21:10;;;;;;;11.93;8.50;;;4.70;99.90;;;;;;5056638;28;20024;-93
2020/12/29 01:23:36;;;;;;;12.90;8.45;;;4.70;99.90;;;;;;5056497;28;20025;-93
2020/12/29 01:26:01;;;;;;;11.27;8.68;;;4.70;99.90;;;;;;5074242;28;20488;-92
2020/12/29 01:28:27;;;;;;;14.30;9.55;;;4.70;99.90;;;;;;5055937;28;20020;-92
2020/12/29 01:30:52;;;;;;;14.30;9.85;;;4.60;99.90;;;;;;5056166;28;20025;-93
2020/12/29 01:33:18;;;;;;;13.90;9.43;;;4.60;99.90;;;;;;5056207;28;20029;-92
2020/12/29 01:35:43;;;;;;;12.77;9.32;;;4.60;99.90;;;;;;5074104;28;20032;-92
2020/12/29 01:38:09;;;;;;;11.13;7.97;;;4.70;99.90;;;;;;5056462;28;20024;-92
2020/12/29 01:40:35;;;;;;;14.68;9.25;;;4.70;99.90;;;;;;5074498;28;20025;-93
2020/12/29 01:43:01;;;;;;;14.60;9.45;;;4.70;99.90;;;;;;5059123;28;20492;-92
2020/12/29 01:45:27;;;;;;;12.25;8.38;;;4.70;99.90;;;;;;5078560;28;20020;-92
2020/12/29 01:47:53;;;;;;;12.13;8.70;;;4.80;99.90;;;;;;5078256;28;20029;-92
2020/12/29 01:50:22;;;;;;;14.75;10.20;;;4.70;99.90;;;;;;5060434;28;20020;-92
2020/12/29 01:52:54;;;;;;;14.68;9.93;;;4.70;99.90;;;;;;5060456;28;20029;-92
2020/12/29 01:55:20;;;;;;;12.18;9.43;;;4.60;99.90;;;;;;5060397;28;20086;-92
2020/12/29 01:57:46;;;;;;;17.42;13.07;;;4.60;99.90;;;;;;5059887;28;20024;-93
2020/12/29 02:00:12;;;;;;;17.70;13.25;;;4.50;99.90;;;;;;5060176;28;20031;-92
2020/12/29 02:02:39;;;;;;;20.27;14.45;;;4.50;99.90;;;;;;5060114;28;20048;-92
2020/12/29 02:05:05;;;;;;;19.27;15.00;;;4.40;99.90;;;;;;5060201;28;20078;-92
2020/12/29 02:07:31;;;;;;;19.05;14.70;;;4.40;99.90;;;;;;5059865;28;20052;-92
2020/12/29 02:09:58;;;;;;;16.73;13.70;;;4.40;99.90;;;;;;5060074;28;20021;-91
2020/12/29 02:12:31;;;;;;;19.33;13.98;;;4.40;99.90;;;;;;5059859;28;20054;-92
2020/12/29 02:14:58;;;;;;;18.85;13.45;;;4.40;99.90;;;;;;5059811;28;20036;-92
2020/12/29 02:17:24;;;;;;;16.77;12.82;;;4.40;99.90;;;;;;5077668;28;20111;-92
2020/12/29 02:19:50;;;;;;;17.60;13.57;;;4.40;99.90;;;;;;5059539;28;20017;-92
2020/12/29 02:22:21;;;;;;;19.73;15.05;;;4.40;99.90;;;;;;5059760;28;20021;-92
2020/12/29 02:24:51;;;;;;;22.50;16.25;;;4.30;99.90;;;;;;5059882;28;20029;-91
2020/12/29 02:27:18;;;;;;;17.63;14.73;;;4.30;99.90;;;;;;5077265;28;20044;-92
2020/12/29 02:29:43;;;;;;;18.70;14.77;;;4.30;99.90;;;;;;5059576;28;20021;-93
2020/12/29 02:32:09;;;;;;;18.58;15.10;;;4.30;99.90;;;;;;5059401;28;20035;-92
2020/12/29 02:34:36;;;;;;;21.65;15.40;;;4.30;99.90;;;;;;5059334;28;20052;-92
2020/12/29 02:37:03;;;;;;;23.73;16.80;;;4.30;99.90;;;;;;5059348;28;20044;-92
2020/12/29 02:39:29;;;;;;;18.33;14.35;;;4.30;99.90;;;;;;5059474;28;20111;-92
2020/12/29 02:41:54;;;;;;;18.58;14.30;;;4.20;99.90;;;;;;5059683;28;20063;-92
2020/12/29 02:44:20;;;;;;;21.13;15.38;;;4.20;99.90;;;;;;5076902;28;20492;-92
2020/12/29 02:46:49;;;;;;;16.40;13.90;;;4.10;99.90;;;;;;5059059;28;20054;-92
2020/12/29 02:49:16;;;;;;;18.13;13.98;;;4.10;99.90;;;;;;5076826;28;20036;-92
2020/12/29 02:51:42;;;;;;;16.92;13.75;;;4.10;99.90;;;;;;5059138;28;20085;-92
2020/12/29 02:54:12;;;;;;;19.88;14.63;;;4.10;99.90;;;;;;5058897;28;20074;-91
2020/12/29 02:56:38;;;;;;;;;;;4.10;99.90;;;;;;5059748;28;20032;-91
2020/12/29 02:59:04;;;;;;;19.98;15.25;;;4.10;99.90;;;;;;5059125;28;19908;-92
2020/12/29 03:01:29;;;;;;;19.50;14.23;;;4.00;99.90;;;;;;5059014;28;20048;-92
2020/12/29 03:03:55;;;;;;;21.70;16.02;;;4.10;99.90;;;;;;5058857;28;20028;-92
2020/12/29 03:06:22;;;;;;;20.60;14.40;;;4.10;99.90;;;;;;5077078;28;20016;-92
2020/12/29 03:08:49;;;;;;;19.65;13.88;;;4.10;99.90;;;;;;5076357;28;20050;-92
2020/12/29 03:11:15;;;;;;;21.38;15.00;;;4.10;99.90;;;;;;5059271;28;20028;-92
2020/12/29 03:13:40;;;;;;;22.10;15.43;;;4.10;99.90;;;;;;5058776;28;20033;-92
2020/12/29 03:16:06;;;;;;;19.48;14.55;;;4.10;99.90;;;;;;5058582;28;20025;-91
2020/12/29 03:18:31;;;;;;;17.67;14.05;;;4.10;99.90;;;;;;5058669;28;20472;-91
2020/12/29 03:20:57;;;;;;;18.08;14.18;;;4.10;99.90;;;;;;5058524;28;20035;-91
2020/12/29 03:23:22;;;;;;;16.15;12.98;;;4.10;99.90;;;;;;5058771;28;20115;-92
2020/12/29 03:25:48;;;;;;;18.52;13.80;;;4.10;99.90;;;;;;5076572;28;20021;-92
2020/12/29 03:28:13;;;;;;;20.48;13.80;;;4.10;99.90;;;;;;5059248;28;20031;-92
2020/12/29 03:30:39;;;;;;;18.60;13.48;;;4.10;99.90;;;;;;5058521;28;20028;-91
2020/12/29 03:33:04;;;;;;;17.42;13.15;;;4.10;99.90;;;;;;5076091;28;20024;-92
2020/12/29 03:35:30;;;;;;;19.10;13.63;;;4.10;99.90;;;;;;5058622;28;20120;-91
2020/12/29 03:37:55;;;;;;;16.35;12.02;;;4.10;99.90;;;;;;5058292;28;20029;-91
2020/12/29 03:40:21;;;;;;;19.52;13.52;;;4.20;99.90;;;;;;5058311;28;20131;-91
2020/12/29 03:42:46;;;;;;;16.00;12.93;;;4.20;99.90;;;;;;5058338;28;20052;-93
2020/12/29 03:45:12;;;;;;;18.13;13.40;;;4.20;99.90;;;;;;5057989;28;20051;-91
2020/12/29 03:47:37;;;;;;;18.35;13.75;;;4.20;99.90;;;;;;5058248;28;20028;-92
2020/12/29 03:50:03;;;;;;;18.20;15.07;;;4.20;99.90;;;;;;5057987;28;20586;-92
2020/12/29 03:52:28;;;;;;;22.60;14.90;;;4.20;99.90;;;;;;5058111;28;20052;-92
2020/12/29 03:54:54;;;;;;;18.73;13.32;;;4.20;99.90;;;;;;5057655;28;20028;-90
2020/12/29 03:57:19;;;;;;;14.85;12.02;;;4.20;99.90;;;;;;5057742;28;20028;-92
2020/12/29 03:59:45;;;;;;;18.88;13.52;;;4.20;99.90;;;;;;5057822;28;20032;-92
2020/12/29 04:02:10;;;;;;;19.58;14.60;;;4.30;99.90;;;;;;5058182;28;20452;-90
2020/12/29 04:04:39;;;;;;;20.42;14.50;;;4.20;99.90;;;;;;5057064;28;20024;-90
2020/12/29 04:07:05;;;;;;;19.75;14.98;;;4.20;99.90;;;;;;5058086;28;20044;-92
2020/12/29 04:09:31;;;;;;;25.20;14.85;;;4.20;99.90;;;;;;5057731;28;20032;-91
2020/12/29 04:11:57;;;;;;;20.02;15.60;;;4.20;99.90;;;;;;5075651;28;20031;-93
2020/12/29 04:14:23;;;;;;;19.63;14.45;;;4.20;99.90;;;;;;5058021;28;20020;-91
2020/12/29 04:16:49;;;;;;;21.55;15.57;;;4.20;99.90;;;;;;5057557;28;20107;-90
2020/12/29 04:19:15;;;;;;;20.52;14.00;;;4.10;99.90;;;;;;5057879;28;20024;-90
2020/12/29 04:21:40;;;;;;;19.65;14.05;;;4.20;99.90;;;;;;5057421;28;20029;-91
2020/12/29 04:24:06;;;;;;;20.48;14.20;;;4.20;99.90;;;;;;5057386;28;20032;-91
2020/12/29 04:26:33;;;;;;;20.05;14.38;;;4.20;99.90;;;;;;5057274;28;20021;-90
2020/12/29 04:28:59;;;;;;;21.70;14.13;;;4.20;99.90;;;;;;5057288;28;20035;-91
2020/12/29 04:31:25;;;;;;;21.48;14.00;;;4.10;99.90;;;;;;5057676;28;20029;-90
2020/12/29 04:33:50;;;;;;;21.25;14.13;;;4.10;99.90;;;;;;5057311;28;20028;-92
2020/12/29 04:36:16;;;;;;;21.67;15.25;;;4.20;99.90;;;;;;5057084;28;20024;-91
2020/12/29 04:38:42;;;;;;;17.60;13.05;;;4.10;99.90;;;;;;5057075;28;20028;-90
2020/12/29 04:41:07;;;;;;;22.55;15.38;;;4.20;99.90;;;;;;5057111;28;20477;-91
2020/12/29 04:43:33;;;;;;;23.30;15.63;;;4.20;99.90;;;;;;5057066;28;20024;-91
2020/12/29 04:46:00;;;;;;;19.58;12.70;;;4.20;99.90;;;;;;5057086;28;20027;-91
2020/12/29 04:48:27;;;;;;;18.13;12.02;;;4.20;99.90;;;;;;5056960;28;20037;-90
2020/12/29 04:51:00;;;;;;;20.20;14.40;;;4.30;99.90;;;;;;5056826;28;20043;-91
2020/12/29 04:53:30;;;;;;;22.65;15.27;;;4.30;99.90;;;;;;5056929;28;20039;-91
2020/12/29 04:56:00;;;;;;;;;;;4.30;99.90;;;;;;5057431;28;20026;-90
2020/12/29 04:58:28;;;;;;;24.13;16.17;;;4.30;99.90;;;;;;5056698;28;20007;-92
2020/12/29 05:00:54;;;;;;;24.23;16.25;;;4.20;99.90;;;;;;5056897;28;20024;-90
2020/12/29 05:03:19;;;;;;;27.52;17.00;;;4.30;99.90;;;;;;5056883;28;20054;-90
2020/12/29 05:05:45;;;;;;;23.23;15.95;;;4.30;99.90;;;;;;5056536;28;20021;-91
2020/12/29 05:08:10;;;;;;;24.23;17.23;;;4.30;99.90;;;;;;5056458;28;20049;-90
2020/12/29 05:10:46;;;;;;;24.60;15.95;;;4.30;99.90;;;;;;5056628;28;20017;-90
2020/12/29 05:13:12;;;;;;;26.35;16.83;;;4.30;99.90;;;;;;5056798;28;20491;-90
2020/12/29 05:15:37;;;;;;;20.70;15.23;;;4.30;99.90;;;;;;5056436;28;20036;-90
2020/12/29 05:18:03;;;;;;;24.55;17.63;;;4.30;99.90;;;;;;5056621;28;20028;-90
2020/12/29 05:20:33;;;;;;;22.38;16.00;;;4.30;99.90;;;;;;5056672;28;20028;-91
2020/12/29 05:23:00;;;;;;;;;;;4.30;99.90;;;;;;5057085;28;20017;-91
2020/12/29 05:25:25;;;;;;;23.75;15.75;;;4.20;99.90;;;;;;5074130;28;19911;-90
2020/12/29 05:27:51;;;;;;;24.27;17.52;;;4.20;99.90;;;;;;5056210;28;20029;-91
2020/12/29 05:30:17;;;;;;;26.80;19.20;;;4.20;99.90;;;;;;5056573;28;20077;-91
2020/12/29 05:32:43;;;;;;;28.88;19.73;;;4.20;99.90;;;;;;5056237;28;20064;-91
2020/12/29 05:35:11;;;;;;;28.65;19.77;;;4.20;99.90;;;;;;5056812;28;20025;-91
2020/12/29 05:37:38;;;;;;;24.17;18.85;;;4.20;99.90;;;;;;5056073;28;20047;-92
2020/12/29 05:40:27;;;;;;;30.60;19.90;;;4.10;99.90;;;;;;5056333;28;20114;-90
2020/12/29 05:42:55;;;;;;;31.80;20.20;;;4.10;99.90;;;;;;5056260;28;20104;-91
2020/12/29 05:45:23;;;;;;;33.38;21.98;;;4.10;99.90;;;;;;5056421;28;20027;-90
2020/12/29 05:47:53;;;;;;;26.88;20.33;;;4.10;99.90;;;;;;5056021;28;20032;-90
2020/12/29 05:50:20;;;;;;;32.72;21.33;;;4.00;99.90;;;;;;5056487;28;20035;-91
2020/12/29 05:53:07;;;;;;;36.33;24.65;;;4.00;99.90;;;;;;5054447;28;20112;-92
2020/12/29 05:55:34;;;;;;;35.47;24.48;;;4.00;99.90;;;;;;5055561;28;20036;-90
2020/12/29 05:58:05;;;;;;;33.63;21.92;;;4.00;99.90;;;;;;5054296;28;20040;-90
2020/12/29 06:00:32;;;;;;;35.22;24.42;;;4.00;99.90;;;;;;5055985;28;20392;-90
2020/12/29 06:03:00;;;;;;;33.67;22.52;;;4.00;99.90;;;;;;5055911;28;20040;-92
2020/12/29 06:05:26;;;;;;;37.20;24.40;;;4.00;99.90;;;;;;5056179;28;20019;-91
2020/12/29 06:07:56;;;;;;;35.65;22.30;;;4.00;99.90;;;;;;5056011;28;20052;-90
2020/12/29 06:10:23;;;;;;;32.58;24.10;;;4.00;99.90;;;;;;5056056;28;20028;-90
2020/12/29 06:13:05;;;;;;;39.42;25.42;;;4.00;99.90;;;;;;5055890;28;20063;-90
2020/12/29 06:15:34;;;;;;;37.60;24.63;;;4.00;99.90;;;;;;5055824;28;20120;-90
2020/12/29 06:18:08;;;;;;;36.75;24.50;;;4.00;99.90;;;;;;5055532;28;20054;-91
2020/12/29 06:20:44;;;;;;;43.17;27.73;;;4.00;99.90;;;;;;5073663;28;20048;-91
2020/12/29 06:23:15;;;;;;;41.65;26.52;;;4.00;99.90;;;;;;5056099;28;20052;-90
2020/12/29 06:25:44;;;;;;;39.03;26.02;;;4.00;99.90;;;;;;5056106;28;20025;-90
2020/12/29 06:28:14;;;;;;;39.33;26.50;;;4.00;99.90;;;;;;5057237;28;20025;-90
2020/12/29 06:30:41;;;;;;;43.22;27.05;;;4.00;99.90;;;;;;5059607;28;20032;-91
2020/12/29 06:33:07;;;;;;;42.72;28.17;;;4.00;99.90;;;;;;5059193;28;20122;-92
2020/12/29 06:35:33;;;;;;;43.42;27.23;;;4.00;99.90;;;;;;5058773;28;20028;-91
2020/12/29 06:38:25;;;;;;;46.50;29.60;;;4.00;99.90;;;;;;5058658;28;20020;-92
2020/12/29 06:40:52;;;;;;;44.28;28.20;;;4.10;99.90;;;;;;5072341;28;20021;-92
2020/12/29 06:43:18;;;;;;;49.05;30.40;;;4.00;99.90;;;;;;5058756;28;20029;-89
2020/12/29 06:45:44;;;;;;;43.28;26.77;;;4.00;99.90;;;;;;5058636;28;20486;-92
2020/12/29 06:48:20;;;;;;;44.30;27.88;;;4.00;99.90;;;;;;5058494;28;20024;-91
2020/12/29 06:50:47;;;;;;;50.08;30.73;;;4.10;99.90;;;;;;5057494;28;20032;-91
2020/12/29 06:53:17;;;;;;;45.33;30.25;;;4.10;99.90;;;;;;5053195;28;20029;-90
2020/12/29 06:55:47;;;;;;;52.47;32.17;;;4.10;99.90;;;;;;5058604;28;20432;-90
2020/12/29 06:58:30;;;;;;;48.17;29.52;;;4.10;99.90;;;;;;5055711;28;20070;-90
2020/12/29 07:01:19;;;;;;;49.97;30.17;;;4.10;99.90;;;;;;5073107;28;20392;-90
2020/12/29 07:03:45;;;;;;;53.35;32.88;;;4.10;99.90;;;;;;5057617;28;20055;-90
2020/12/29 07:06:11;;;;;;;50.30;31.77;;;4.10;99.90;;;;;;5073742;28;20017;-90
2020/12/29 07:08:36;;;;;;;52.10;33.83;;;4.10;99.90;;;;;;5058041;28;20050;-90
2020/12/29 07:11:16;;;;;;;56.50;35.35;;;4.10;99.90;;;;;;5058404;28;20051;-89
2020/12/29 07:13:51;;;;;;;55.65;34.80;;;4.10;99.90;;;;;;5073298;28;20028;-90
2020/12/29 07:16:22;;;;;;;51.35;31.73;;;4.10;99.90;;;;;;5055986;28;20043;-90
2020/12/29 07:18:48;;;;;;;55.65;32.25;;;4.10;99.90;;;;;;5058013;28;20039;-90
2020/12/29 07:21:27;;;;;;;58.28;31.42;;;4.10;99.90;;;;;;5057952;28;20024;-90
2020/12/29 07:23:54;;;;;;;49.40;27.02;;;4.10;99.90;;;;;;5055605;28;20044;-90
2020/12/29 07:26:21;;;;;;;55.00;28.33;;;4.10;99.90;;;;;;5075883;28;20020;-91
2020/12/29 07:28:54;;;;;;;50.95;27.00;;;4.00;99.90;;;;;;5057890;28;20024;-90
2020/12/29 07:31:20;;;;;;;57.50;28.38;;;4.00;99.90;;;;;;5056103;28;20082;-89
2020/12/29 07:33:53;;;;;;;58.75;27.23;;;4.00;99.90;;;;;;5057602;28;20544;-92
2020/12/29 07:36:20;;;;;;;60.50;27.38;;;4.00;99.90;;;;;;5072509;28;20020;-89
2020/12/29 07:38:48;;;;;;;58.80;29.60;;;3.90;99.90;;;;;;5056871;28;20085;-90
2020/12/29 07:41:15;;;;;;;63.40;30.50;;;4.00;99.90;;;;;;5057125;28;20108;-89
2020/12/29 07:43:41;;;;;;;63.67;28.98;;;3.90;99.90;;;;;;5057545;28;20047;-90
2020/12/29 07:46:07;;;;;;;64.00;30.67;;;3.90;99.90;;;;;;5057598;28;20454;-89
2020/12/29 07:48:33;;;;;;;65.57;30.90;;;3.90;99.90;;;;;;5038232;28;20099;-90
2020/12/29 07:51:00;;;;;;;70.57;33.00;;;3.90;99.90;;;;;;5037940;28;20025;-90
2020/12/29 07:53:25;;;;;;;67.32;31.13;;;3.90;99.90;;;;;;5037861;28;20029;-91
2020/12/29 07:55:51;;;;;;;67.20;30.88;;;3.90;99.90;;;;;;5037956;28;20036;-91
2020/12/29 07:58:17;;;;;;;68.32;30.77;;;3.90;99.90;;;;;;5037952;28;20039;-90
2020/12/29 08:00:42;;;;;;;70.80;32.53;;;3.90;99.90;;;;;;5037709;28;20116;-92
2020/12/29 08:03:09;;;;;;;59.92;29.90;;;3.90;99.90;;;;;;5055155;28;20050;-89
2020/12/29 08:05:35;;;;;;;61.35;30.08;;;3.90;99.90;;;;;;5054290;28;20032;-89
2020/12/29 08:08:06;;;;;;;52.45;27.40;;;3.90;99.90;;;;;;5057084;28;20056;-89
2020/12/29 08:10:39;;;;;;;51.38;26.38;;;3.90;99.90;;;;;;5057040;28;20024;-89
2020/12/29 08:13:09;;;;;;;47.20;24.08;;;3.90;99.90;;;;;;5074970;28;20087;-89
2020/12/29 08:15:41;;;;;;;;;;;3.80;99.90;;;;;;5057872;28;20130;-90
2020/12/29 08:18:06;;;;;;;40.70;20.35;;;3.80;99.90;;;;;;5056885;28;19912;-89
2020/12/29 08:20:45;;;;;;;45.15;23.38;;;3.80;99.90;;;;;;5056569;28;20091;-89
2020/12/29 08:23:19;;;;;;;44.50;23.70;;;3.80;99.90;;;;;;5056837;28;20253;-90
2020/12/29 08:25:59;;;;;;;43.13;22.88;;;3.80;99.90;;;;;;5056773;28;20031;-89
2020/12/29 08:28:30;;;;;;;40.55;20.88;;;3.90;99.90;;;;;;5072301;28;20024;-90
2020/12/29 08:30:57;;;;;;;42.92;22.73;;;3.90;99.90;;;;;;5072132;28;20024;-90
2020/12/29 08:33:24;;;;;;;40.75;20.20;;;3.90;99.90;;;;;;5056553;28;20067;-89
2020/12/29 08:35:56;;;;;;;42.85;23.13;;;3.90;99.90;;;;;;5056445;28;20217;-86
2020/12/29 08:38:30;;;;;;;37.85;22.10;;;3.90;99.90;;;;;;5055710;28;20033;-87
2020/12/29 08:41:05;;;;;;;41.88;22.48;;;4.00;99.90;;;;;;5056318;28;20031;-87
2020/12/29 08:43:40;;;;;;;39.38;21.98;;;4.00;99.90;;;;;;5056299;28;20050;-87
2020/12/29 08:46:07;;;;;;;41.70;22.63;;;4.00;99.90;;;;;;5074041;28;20021;-88
2020/12/29 08:48:33;;;;;;;37.90;21.17;;;4.00;99.90;;;;;;5059834;28;20032;-88
2020/12/29 08:51:00;;;;;;;36.17;20.77;;;4.10;99.90;;;;;;5073203;28;20036;-88
2020/12/29 08:53:27;;;;;;;37.58;21.70;;;4.10;99.90;;;;;;5055465;28;20024;-87
2020/12/29 08:55:53;;;;;;;36.65;20.52;;;4.10;99.90;;;;;;5055687;28;20029;-88
2020/12/29 08:58:26;;;;;;;32.47;19.25;;;4.10;99.90;;;;;;5055271;28;20028;-88
2020/12/29 09:00:52;;;;;;;33.85;19.27;;;4.20;99.90;;;;;;5043197;28;20025;-89
2020/12/29 09:03:25;;;;;;;31.67;18.60;;;4.20;99.90;;;;;;5038896;28;20116;-88
2020/12/29 09:05:53;;;;;;;34.40;19.00;;;4.30;99.90;;;;;;5066280;28;20013;-88
2020/12/29 09:08:29;;;;;;;29.60;17.75;;;4.30;99.90;;;;;;5050131;28;20119;-88
2020/12/29 09:11:15;;;;;;;33.50;19.70;;;4.40;99.90;;;;;;5042640;28;20074;-87
2020/12/29 09:14:03;;;;;;;29.75;18.55;;;4.50;99.90;;;;;;5072997;28;20126;-87
2020/12/29 09:16:28;;;;;;;32.35;19.30;;;4.50;99.90;;;;;;5054934;28;20109;-86
2020/12/29 09:18:54;;;;;;;33.40;19.98;;;4.50;99.90;;;;;;5048774;28;20057;-86
2020/12/29 09:21:25;;;;;;;34.45;19.20;;;4.50;99.90;;;;;;5060539;28;20020;-85
2020/12/29 09:24:01;;;;;;;28.77;18.13;;;4.50;99.90;;;;;;5036055;28;20140;-86
2020/12/29 09:26:27;;;;;;;30.67;17.60;;;4.60;99.90;;;;;;5049582;28;20023;-85
2020/12/29 09:28:52;;;;;;;29.27;17.83;;;4.60;99.90;;;;;;5034908;28;20031;-86
2020/12/29 09:31:26;;;;;;;31.13;18.27;;;4.60;99.90;;;;;;5050590;28;20116;-85
2020/12/29 09:33:52;;;;;;;31.80;19.55;;;4.60;99.90;;;;;;5049122;28;20035;-85
2020/12/29 09:36:26;;;;;;;27.27;16.83;;;4.60;99.90;;;;;;5047477;28;20020;-85
2020/12/29 09:38:54;;;;;;;26.60;17.02;;;4.60;99.90;;;;;;5054121;28;20036;-85
2020/12/29 09:41:20;;;;;;;28.90;17.42;;;4.60;99.90;;;;;;5054442;28;20037;-85
2020/12/29 09:43:49;;;;;;;29.27;18.35;;;4.70;99.90;;;;;;5048014;28;20370;-85
2020/12/29 09:46:16;;;;;;;33.72;19.27;;;4.70;99.90;;;;;;5037425;28;20017;-85
2020/12/29 09:48:42;;;;;;;31.17;18.80;;;4.70;99.90;;;;;;5034643;28;20033;-85
2020/12/29 09:51:11;;;;;;;32.92;19.83;;;4.70;99.90;;;;;;5034947;28;20025;-85
2020/12/29 09:53:36;;;;;;;32.05;20.33;;;4.80;99.90;;;;;;5050548;28;20025;-85
2020/12/29 09:56:02;;;;;;;30.85;18.95;;;4.80;99.90;;;;;;5036282;28;20029;-85
2020/12/29 09:58:27;;;;;;;29.88;19.40;;;4.90;99.90;;;;;;5037837;28;20035;-85
2020/12/29 10:00:53;;;;;;;31.38;19.95;;;4.90;99.90;;;;;;5051959;28;20431;-85
2020/12/29 10:03:19;;;;;;;33.08;20.55;;;5.00;99.90;;;;;;5057068;28;20024;-84
2020/12/29 10:05:44;;;;;;;35.80;21.83;;;5.00;99.90;;;;;;5053998;28;20017;-84
2020/12/29 10:08:14;;;;;;;33.53;18.70;;;5.10;99.90;;;;;;5075515;28;20040;-84
2020/12/29 10:10:39;;;;;;;40.60;25.37;;;5.20;99.90;;;;;;5075943;28;20028;-84
2020/12/29 10:13:05;;;;;;;41.45;25.48;;;5.20;99.90;;;;;;5055307;28;20029;-85
2020/12/29 10:15:30;;;;;;;47.08;26.33;;;5.20;99.90;;;;;;5042375;28;20028;-87
2020/12/29 10:17:56;;;;;;;50.50;27.77;;;5.10;99.90;;;;;;5051208;28;20040;-87
2020/12/29 10:20:21;;;;;;;58.00;29.65;;;5.10;99.90;;;;;;5069081;28;20035;-87
2020/12/29 10:22:47;;;;;;;55.05;29.73;;;5.10;99.90;;;;;;5045848;28;20087;-87
2020/12/29 10:25:16;;;;;;;55.85;31.95;;;5.10;99.90;;;;;;5049595;28;20013;-87
2020/12/29 10:27:43;;;;;;;55.13;32.95;;;5.00;99.90;;;;;;5048349;28;20111;-87
2020/12/29 10:30:10;;;;;;;55.15;32.85;;;5.00;99.90;;;;;;5042844;28;20365;-86
2020/12/29 10:32:36;;;;;;;50.80;32.30;;;4.90;99.90;;;;;;5061220;28;20016;-87
2020/12/29 10:35:01;;;;;;;60.22;33.42;;;4.90;99.90;;;;;;5057693;28;20047;-87
2020/12/29 10:37:27;;;;;;;57.35;33.25;;;4.90;99.90;;;;;;5057926;28;20027;-87
2020/12/29 10:39:52;;;;;;;53.70;33.58;;;4.90;99.90;;;;;;5057317;28;20025;-87
2020/12/29 10:42:18;;;;;;;65.80;36.60;;;4.90;99.90;;;;;;5057131;28;20025;-87
2020/12/29 10:44:43;;;;;;;55.42;31.92;;;5.00;99.90;;;;;;5056806;28;20033;-88
2020/12/29 10:47:09;;;;;;;56.50;32.50;;;5.00;99.90;;;;;;5057467;28;20025;-87
2020/12/29 10:49:34;;;;;;;57.17;33.30;;;5.10;99.90;;;;;;5075450;28;20415;-88
2020/12/29 10:52:00;;;;;;;55.00;31.02;;;5.10;99.90;;;;;;5057761;28;20543;-88
2020/12/29 10:54:25;;;;;;;57.42;33.40;;;5.20;99.90;;;;;;5057082;28;20028;-87
2020/12/29 10:56:51;;;;;;;57.97;33.30;;;5.30;99.90;;;;;;5057588;28;20035;-88
2020/12/29 10:59:16;;;;;;;50.85;32.10;;;5.40;99.90;;;;;;5057619;28;20021;-88
2020/12/29 11:01:42;;;;;;;49.40;30.88;;;5.50;99.90;;;;;;5074826;28;20028;-87
2020/12/29 11:04:07;;;;;;;53.97;32.92;;;5.50;99.90;;;;;;5057522;28;20044;-87
2020/12/29 11:06:33;;;;;;;50.80;31.30;;;5.50;99.90;;;;;;5052552;28;20053;-87
2020/12/29 11:08:58;;;;;;;50.63;31.60;;;5.50;99.90;;;;;;5052652;28;20045;-87
2020/12/29 11:11:24;;;;;;;49.67;31.02;;;5.50;99.90;;;;;;5047972;28;20155;-88
2020/12/29 11:13:49;;;;;;;47.33;29.73;;;5.50;99.90;;;;;;5053884;28;20112;-88
2020/12/29 11:16:17;;;;;;;48.42;30.55;;;5.60;99.90;;;;;;5053769;28;20484;-88
2020/12/29 11:18:43;;;;;;;48.70;32.45;;;5.60;99.90;;;;;;5054116;28;20464;-88
2020/12/29 11:21:09;;;;;;;48.25;30.58;;;5.50;99.90;;;;;;5054988;28;20021;-87
2020/12/29 11:23:35;;;;;;;45.17;30.83;;;5.50;99.90;;;;;;5055367;28;20028;-87
2020/12/29 11:26:00;;;;;;;50.28;32.70;;;5.40;99.90;;;;;;5053705;28;20036;-87
2020/12/29 11:28:26;;;;;;;54.50;31.77;;;5.40;99.90;;;;;;5053824;28;20454;-87
2020/12/29 11:30:52;;;;;;;47.97;30.88;;;5.40;99.90;;;;;;5053435;28;20040;-88
2020/12/29 11:33:17;;;;;;;52.33;33.03;;;5.30;99.90;;;;;;5053681;28;20484;-88
2020/12/29 11:35:44;;;;;;;52.05;32.42;;;5.30;99.90;;;;;;5052975;28;20428;-88
2020/12/29 11:38:09;;;;;;;52.22;33.92;;;5.20;99.90;;;;;;5047590;28;20057;-88
2020/12/29 11:40:35;;;;;;;54.10;32.92;;;5.20;99.90;;;;;;5046522;28;20463;-88
2020/12/29 11:43:01;;;;;;;51.25;32.33;;;5.20;99.90;;;;;;5035220;28;20071;-88
2020/12/29 11:45:27;;;;;;;51.67;32.80;;;5.20;99.90;;;;;;5049515;28;20021;-87
2020/12/29 11:47:52;;;;;;;53.97;31.92;;;5.20;99.90;;;;;;5053496;28;20435;-86
2020/12/29 11:50:18;;;;;;;54.72;33.75;;;5.20;99.90;;;;;;5053171;28;20554;-87
2020/12/29 11:52:43;;;;;;;49.08;32.03;;;5.20;99.90;;;;;;5053280;28;20025;-87
2020/12/29 11:55:09;;;;;;;55.38;34.33;;;5.20;99.90;;;;;;5054033;28;20025;-87
2020/12/29 11:57:35;;;;;;;53.22;33.75;;;5.20;99.90;;;;;;5053701;28;20116;-87
2020/12/29 12:00:00;;;;;;;51.17;32.83;;;5.20;99.90;;;;;;5052955;28;20473;-86
2020/12/29 12:02:26;;;;;;;50.35;31.17;;;5.10;99.90;;;;;;5044186;28;20163;-87
2020/12/29 12:04:52;;;;;;;41.60;27.20;;;5.10;99.90;;;;;;5050030;28;20021;-87
2020/12/29 12:07:17;;;;;;;44.28;28.42;;;5.10;99.90;;;;;;5046466;28;20044;-87
2020/12/29 12:09:43;;;;;;;35.80;24.65;;;5.10;99.90;;;;;;5055609;28;20036;-87
2020/12/29 12:12:08;;;;;;;34.67;24.83;;;5.10;99.90;;;;;;5055277;28;20438;-89
2020/12/29 12:14:34;;;;;;;36.65;24.42;;;5.10;99.90;;;;;;5073274;28;20063;-88
2020/12/29 12:16:59;;;;;;;36.10;26.17;;;5.10;99.90;;;;;;5047716;28;20096;-87
2020/12/29 12:19:25;;;;;;;33.13;23.42;;;5.10;99.90;;;;;;5058924;28;20032;-87
2020/12/29 12:21:51;;;;;;;33.45;24.50;;;5.10;99.90;;;;;;5037872;28;20484;-87
2020/12/29 12:24:16;;;;;;;35.60;23.80;;;5.10;99.90;;;;;;5039864;28;20070;-86
2020/12/29 12:26:42;;;;;;;35.08;23.50;;;5.10;99.90;;;;;;5039670;28;20544;-85
2020/12/29 12:29:07;;;;;;;34.45;24.25;;;5.10;99.90;;;;;;5034623;28;20519;-86
2020/12/29 12:31:33;;;;;;;36.03;24.30;;;5.20;99.90;;;;;;5041193;28;20017;-85
2020/12/29 12:33:58;;;;;;;31.67;21.95;;;5.20;99.90;;;;;;5060499;28;20041;-87
2020/12/29 12:36:24;;;;;;;35.83;23.30;;;5.20;99.90;;;;;;5061535;28;20025;-86
2020/12/29 12:38:50;;;;;;;32.75;22.38;;;5.20;99.90;;;;;;5046303;28;20053;-86